Flugplatz Barssel (EDXL)

Hier findest Du alle Informationen zum Flugplatz Barssel (EDXL).

Informationen für Piloten zum Flugplatz Barssel

Hier findest Du alle relevanten Informationen, die Du als Pilot benötigst, um Barssel anzufliegen.

Flugplatz: Barssel ICAO-Code: EDXL
Frequenz Turm: 122,000 Mhz GAFOR Gebiet: 5
Frequenz Ground: 122,000 Mhz Mogas: nein
Platzrunde: NE 800 ft Landegebühr: -
Platzhöhe: - Sunrise: 03:01 Uhr UTC
Pisten: 12/30 - 600 m x 30 m, GRAS Sunset: 19:53 Uhr UTC

Flugwetter am Flugplatz Barssel

Die METAR Information stammen aus EDDW (67.52 km entfernt).

METAR Code:
2023/06/02 19:20
EDDW 021920Z AUTO 05010KT CAVOK 16/02 Q1022 NOSIG

Temperatur: 20,2 °C Niederschlag: - Wind: 9,0 kt (max.: 8,5 kt in Böen)
Temperatur (min.): 15,0 °C Luftdruck: 1020 hPa Windrichtung: 359 °
Temperatur (max.): 21,2 °C Luftfeuchtigkeit: 67 % Bewölkung: 1/8

Flugschulen am Flugplatz Barssel

Am Flugplatz Barssel gibt es leider keine Flugschule.

Benachbarte Flugplätze und Flugschulen

Es gibt 14 weitere Flugplätze in einem Umkreis von 50 km um den Flugplatz Barssel.

Jetzt anmelden

Passwort vergessen

Umfrage Archiv

Sendet Ihr ADS-B und/oder FLARM?

Ja
83.2 %
Nein
16.8 %
Stimmen: 357 | Diskussion
Anzeige: Roland Aircraft
Statistik Alle Mitglieder

Aktuell sind 38 Besucher online, davon 1 Mitglied und 37 Gäste.


Mitglieder online:
slintes 

Anzeige: EasyVFR